ADDS METAR Data INFO
IDs: Format: Raw Decoded Include TAF

Data at: 0220 UTC 18 Jan 2018

KMDQ 180215Z AUTO 36004KT 10SM CLR M10/M13 A3055 RMK AO2
KMDQ 180155Z AUTO 35004KT 10SM CLR M08/M13 A3056 RMK AO2
KMDQ 180135Z AUTO 36004KT 10SM CLR M08/M13 A3055 RMK AO2
KMDQ 180115Z AUTO 01004KT 10SM CLR M08/M13 A3056 RMK AO2
KMDQ 180055Z AUTO 01003KT 10SM CLR M08/M12 A3056 RMK AO2
KMDQ 180035Z AUTO 01003KT 10SM CLR M07/M13 A3056 RMK AO2
KMDQ 180015Z AUTO 01003KT 10SM CLR M07/M12 A3056 RMK AO2
KMDQ 172355Z AUTO 01005KT 10SM CLR M07/M12 A3056 RMK AO2
KMDQ 172335Z AUTO 02004KT 10SM CLR M06/M12 A3056 RMK AO2
KMDQ 172315Z AUTO 01008KT 10SM CLR M06/M12 A3056 RMK AO2
KMDQ 172255Z AUTO 36008KT 10SM CLR M06/M12 A3056 RMK AO2
KMDQ 172235Z AUTO 36008KT 10SM CLR M05/M12 A3057 RMK AO2
KMDQ 172215Z AUTO 36008KT 10SM CLR M05/M12 A3057 RMK AO2
KMDQ 172155Z AUTO 34010KT 10SM CLR M05/M12 A3057 RMK AO2
KMDQ 172135Z AUTO 34012KT 10SM CLR M05/M12 A3056 RMK AO2
KMDQ 172115Z AUTO 36008G14KT 10SM CLR M05/M12 A3056 RMK AO2
KMDQ 172055Z AUTO 33009KT 10SM CLR M05/M12 A3056 RMK AO2
KMDQ 172035Z AUTO 33008KT 10SM CLR M05/M12 A3056 RMK AO2
KMDQ 172015Z AUTO 36009KT 10SM CLR M05/M11 A3056 RMK AO2
KMDQ 171955Z AUTO 35009G14KT 10SM CLR M06/M11 A3057 RMK AO2
KMDQ 171935Z AUTO 35011KT 10SM CLR M06/M11 A3057 RMK AO2
KMDQ 171915Z AUTO 33010KT 10SM CLR M06/M12 A3057 RMK AO2
KMDQ 171855Z AUTO 34012KT 10SM SCT022 M06/M12 A3058 RMK AO2
KMDQ 171835Z AUTO 33011KT 10SM CLR M07/M12 A3058 RMK AO2
KMDQ 171815Z AUTO 33013G17KT 10SM CLR M07/M12 A3059 RMK AO2
KMDQ 171755Z AUTO 34009KT 10SM CLR M07/M13 A3060 RMK AO2
KMDQ 171735Z AUTO 36011G18KT 10SM CLR M07/M13 A3061 RMK AO2
KMDQ 171715Z AUTO 36010KT 10SM SCT023 M07/M13 A3062 RMK AO2
KMDQ 171655Z AUTO 36009KT 10SM SCT023 M08/M14 A3063 RMK AO2
KMDQ 171635Z AUTO 35011G14KT 10SM SCT023 M09/M14 A3063 RMK AO2
KMDQ 171615Z AUTO 34010KT 10SM BKN021 M10/M15 A3064 RMK AO2
KMDQ 171555Z AUTO 34011KT 10SM -SN CLR M10/M15 A3063 RMK AO2
KMDQ 171535Z AUTO 34012KT 10SM -SN SCT016 SCT025 M10/M15 A3062 RMK AO2
KMDQ 171515Z AUTO 36010KT 5SM -SN SCT018 SCT025 M11/M15 A3062 RMK AO2
KMDQ 171455Z AUTO 35012G15KT 4SM -SN SCT029 M11/M15 A3061 RMK AO2
KMDQ 171435Z AUTO 34012KT 3SM -SN M12/M15 A3060 RMK AO2
KMDQ 171415Z AUTO M12/M15 RMK AO2 PWINO PNO TSNO
KMDQ 171355Z AUTO 35011KT 5SM -SN OVC027 M12/M15 A3059 RMK AO2
KMDQ 171335Z AUTO 35012KT 7SM BKN025 M12/M15 A3058 RMK AO2
KMDQ 171315Z AUTO 35012KT 10SM SCT023 M12/M16 A3057 RMK AO2
KMDQ 171255Z AUTO 35010KT 10SM SCT021 M12/M16 A3057 RMK AO2
KMDQ 171235Z AUTO 34009KT 10SM BKN021 M12/M16 A3057 RMK AO2
KMDQ 171215Z AUTO 35009KT 10SM SCT021 SCT100 M13/M16 A3056 RMK AO2
KMDQ 171155Z AUTO 36010KT 10SM SCT021 SCT100 M13/M16 A3056 RMK AO2
KMDQ 171135Z AUTO 01008KT 10SM SCT021 M13/M16 A3055 RMK AO2
KMDQ 171115Z AUTO 36007KT 10SM SCT021 SCT090 M13/M17 A3055 RMK AO2
KMDQ 171055Z AUTO 36008KT 10SM CLR M13/M17 A3055 RMK AO2
KMDQ 171035Z AUTO 36007KT 10SM CLR M14/M17 A3055 RMK AO2
KMDQ 171015Z AUTO 36007KT 10SM CLR M14/M17 A3054 RMK AO2
KMDQ 170955Z AUTO 36007KT 10SM CLR M14/M17 A3054 RMK AO2
KMDQ 170935Z AUTO 36007KT 10SM SCT018 M13/M17 A3054 RMK AO2
KMDQ 170915Z AUTO 36008KT 10SM SCT018 M13/M16 A3055 RMK AO2
KMDQ 170855Z AUTO 35007KT 10SM CLR M14/M17 A3055 RMK AO2
KMDQ 170835Z AUTO 35007KT 10SM CLR M13/M17 A3055 RMK AO2
KMDQ 170815Z AUTO 35007KT 10SM CLR M13/M17 A3055 RMK AO2
KMDQ 170755Z AUTO 34007KT 10SM CLR M13/M16 A3055 RMK AO2
KMDQ 170735Z AUTO 35007KT 10SM CLR M13/M16 A3055 RMK AO2
KMDQ 170715Z AUTO 35007KT 10SM CLR M12/M16 A3055 RMK AO2
KMDQ 170655Z AUTO 36008KT 10SM CLR M12/M16 A3054 RMK AO2
KMDQ 170635Z AUTO 35008KT 10SM CLR M12/M16 A3055 RMK AO2
KMDQ 170615Z AUTO 36009G15KT 10SM CLR M12/M16 A3055 RMK AO2
KMDQ 170555Z AUTO 35011KT 10SM CLR M12/M16 A3055 RMK AO2
KMDQ 170535Z AUTO 36010KT 10SM CLR M11/M16 A3056 RMK AO2
KMDQ 170515Z AUTO 36009KT 10SM CLR M11/M16 A3057 RMK AO2
KMDQ 170455Z AUTO 36008G14KT 10SM CLR M11/M15 A3058 RMK AO2
KMDQ 170435Z AUTO 01010KT 10SM CLR M10/M15 A3057 RMK AO2
KMDQ 170415Z AUTO 36009KT 10SM CLR M10/M14 A3057 RMK AO2
KMDQ 170355Z AUTO 36009KT 10SM CLR M10/M13 A3057 RMK AO2
KMDQ 170335Z AUTO 02006KT 10SM CLR M10/M13 A3058 RMK AO2
KMDQ 170315Z AUTO 01007KT 10SM CLR M10/M13 A3057 RMK AO2
KMDQ 170255Z AUTO 03008KT 10SM CLR M09/M13 A3056 RMK AO2
KMDQ 170235Z AUTO 02005KT 10SM CLR M09/M13 A3057 RMK AO2
KMDQ 170215Z AUTO 02007KT 10SM CLR M08/M13 A3056 RMK AO2
KMDQ 170155Z AUTO 36005KT 10SM CLR M09/M12 A3056 RMK AO2
KMDQ 170135Z AUTO 35007KT 10SM SCT020 M09/M13 A3056 RMK AO2
KMDQ 170115Z AUTO 35009KT 10SM CLR M08/M13 A3055 RMK AO2
KMDQ 170055Z AUTO 34010KT 10SM SCT020 M08/M12 A3057 RMK AO2
KMDQ 170035Z AUTO 34012KT 10SM SCT020 M08/M12 A3055 RMK AO2
KMDQ 170015Z AUTO 35011KT 10SM CLR M08/M12 A3053 RMK AO2
KMDQ 162355Z AUTO 35010KT 10SM CLR M08/M12 A3053 RMK AO2
KMDQ 162335Z AUTO 35011KT 10SM CLR M08/M11 A3053 RMK AO2
KMDQ 162315Z AUTO 35012KT 10SM CLR M07/M11 A3052 RMK AO2
KMDQ 162255Z AUTO 35012KT 10SM CLR M07/M11 A3052 RMK AO2
KMDQ 162235Z AUTO 34011KT 10SM CLR M07/M10 A3052 RMK AO2
KMDQ 162215Z AUTO 35009KT 10SM CLR M07/M11 A3052 RMK AO2
KMDQ 162155Z AUTO 36009KT 10SM CLR M06/M10 A3052 RMK AO2
KMDQ 162135Z AUTO 35009KT 10SM CLR M06/M10 A3051 RMK AO2
KMDQ 162115Z AUTO 34011KT 10SM CLR M06/M10 A3051 RMK AO2
KMDQ 162055Z AUTO 35009KT 10SM CLR M06/M10 A3050 RMK AO2
KMDQ 162035Z AUTO 34010KT 10SM -SN CLR M06/M10 A3051 RMK AO2
KMDQ 162015Z AUTO 35011KT 5SM -SN CLR M06/M10 A3050 RMK AO2
KMDQ 161955Z AUTO 35010KT 10SM CLR M06/M09 A3051 RMK AO2
KMDQ 161935Z AUTO 35011KT 10SM -SN CLR M05/M08 A3050 RMK AO2
KMDQ 161915Z AUTO 35010KT 10SM -SN CLR M05/M08 A3049 RMK AO2
KMDQ 161855Z AUTO 35010KT 10SM CLR M05/M08 A3049 RMK AO2
KMDQ 161835Z AUTO 33008KT 5SM -SN CLR M05/M08 A3050 RMK AO2
KMDQ 161815Z AUTO 01006KT 4SM -SN CLR M05/M08 A3050 RMK AO2
KMDQ 161755Z AUTO 35009KT 5SM -SN CLR M05/M08 A3051 RMK AO2
KMDQ 161735Z AUTO 36009KT 10SM -SN CLR M05/M08 A3052 RMK AO2
KMDQ 161715Z AUTO 36012KT 3SM -SN CLR M05/M07 A3052 RMK AO2
KMDQ 161655Z AUTO 34012KT 2 1/2SM -SN CLR M05/M07 A3053 RMK AO2
KMDQ 161635Z AUTO 35012KT 2SM -SN CLR M05/M07 A3053 RMK AO2
KMDQ 161615Z AUTO 34011KT 1 3/4SM -SN VV007 M05/M07 A3054 RMK AO2
KMDQ 161555Z AUTO 34011KT 2SM -SN M05/M07 A3053 RMK AO2 SKY OBSCURED
KMDQ 161535Z AUTO 34012KT 1 1/4SM -SN BKN013 BKN020 M05/M06 A3052 RMK AO2
KMDQ 161515Z AUTO 34010KT 5SM -SN SCT013 OVC020 M04/M07 A3051 RMK AO2
KMDQ 161455Z AUTO 36009KT 5SM -SN OVC018 M04/M07 A3050 RMK AO2
KMDQ 161435Z AUTO 35011KT 10SM OVC018 M03/M07 A3049 RMK AO2